Time;durP1;ratioP1;P1;durP2;ratioP2;P2;SDS_P1;SDS_P2;PMS_P1;PMS_P2;Temp;Humidity;BMP_temperature;BMP_pressure;BME280_temperature;BME280_humidity;BME280_pressure;Samples;Min_cycle;Max_cycle;Signal;HPM_P1;HPM_P2
2023/12/09 00:03:40;;;;;;;35.47;26.48;;;;;;;5.99;100.00;99961.72;10334988;28;20756;-63
2023/12/09 00:08:42;;;;;;;44.40;30.55;;;;;;;5.92;100.00;99959.56;10337176;28;20140;-63
2023/12/09 00:13:44;;;;;;;41.15;29.20;;;;;;;5.99;100.00;99977.59;10334358;28;20487;-62
2023/12/09 00:18:45;;;;;;;37.88;26.98;;;;;;;5.99;100.00;99982.88;10333228;28;20121;-63
2023/12/09 00:23:47;;;;;;;36.72;27.17;;;;;;;6.09;100.00;99995.47;10334976;28;20093;-63
2023/12/09 00:28:50;;;;;;;38.40;28.15;;;;;;;6.10;100.00;99990.09;10338681;28;20577;-63
2023/12/09 00:33:52;;;;;;;38.00;26.17;;;;;;;6.15;100.00;100008.28;10333158;28;20332;-64
2023/12/09 00:38:54;;;;;;;33.65;25.77;;;;;;;6.23;100.00;100006.00;10337303;28;20061;-62
2023/12/09 00:43:55;;;;;;;38.78;27.92;;;;;;;6.24;100.00;100002.38;10335369;28;20054;-62
2023/12/09 00:48:56;;;;;;;39.78;29.30;;;;;;;6.25;100.00;100013.81;10336696;28;20065;-62
2023/12/09 00:53:58;;;;;;;34.78;26.75;;;;;;;6.21;100.00;100010.50;10339915;28;20124;-62
2023/12/09 00:58:59;;;;;;;39.00;28.13;;;;;;;6.28;100.00;100014.44;10325278;28;20053;-62
2023/12/09 01:04:02;;;;;;;38.78;27.02;;;;;;;6.29;100.00;100021.44;10339370;28;20588;-63
2023/12/09 01:09:04;;;;;;;40.28;28.10;;;;;;;6.24;100.00;100028.81;10333366;28;20054;-63
2023/12/09 01:14:06;;;;;;;41.50;29.10;;;;;;;6.26;100.00;100028.72;10324691;28;20112;-62
2023/12/09 01:19:07;;;;;;;38.85;27.27;;;;;;;6.31;100.00;100030.09;10338786;28;20042;-62
2023/12/09 01:24:09;;;;;;;42.65;29.77;;;;;;;6.06;100.00;99993.88;10344032;28;20528;-62
2023/12/09 01:29:11;;;;;;;44.20;30.25;;;;;;;6.18;100.00;100016.88;10341998;28;20097;-63
2023/12/09 01:34:12;;;;;;;42.75;29.02;;;;;;;6.28;100.00;100030.31;10341061;28;20626;-63
2023/12/09 01:39:14;;;;;;;42.53;30.42;;;;;;;6.27;100.00;100038.34;10345948;28;20132;-62
2023/12/09 01:44:15;;;;;;;40.22;27.73;;;;;;;6.28;100.00;100048.81;10346626;28;20060;-63
2023/12/09 01:49:17;;;;;;;39.78;28.60;;;;;;;6.25;100.00;100041.09;10329857;28;20054;-62
2023/12/09 01:54:20;;;;;;;38.17;26.98;;;;;;;6.21;100.00;100036.09;10340313;28;20065;-62
2023/12/09 01:59:22;;;;;;;35.20;27.10;;;;;;;6.25;100.00;100051.66;10336401;28;20058;-62
2023/12/09 02:04:24;;;;;;;35.65;26.25;;;;;;;6.26;100.00;100045.44;10342316;28;20054;-62
2023/12/09 02:09:25;;;;;;;39.28;27.17;;;;;;;6.27;100.00;100041.00;10343898;28;20535;-64
2023/12/09 02:14:38;;;;;;;38.00;26.33;;;;;;;6.32;100.00;100034.47;10341088;28;20696;-63
2023/12/09 02:19:40;;;;;;;37.45;27.13;;;;;;;6.28;100.00;100024.19;10338268;28;20756;-60
2023/12/09 02:24:44;;;;;;;37.22;27.80;;;;;;;6.25;100.00;100013.81;10339805;28;20088;-62
2023/12/09 02:30:03;;;;;;;41.47;28.15;;;;;;;6.21;100.00;99999.94;10329474;28;20049;-62
2023/12/09 02:35:07;;;;;;;39.38;28.45;;;;;;;6.24;100.00;99989.16;10331360;28;20050;-62
2023/12/09 02:40:11;;;;;;;40.47;29.33;;;;;;;6.14;100.00;99982.78;10339147;28;20065;-62
2023/12/09 02:45:13;;;;;;;39.88;28.02;;;;;;;6.14;100.00;99972.22;10337234;28;20045;-63
2023/12/09 02:50:17;;;;;;;39.58;28.73;;;;;;;6.09;100.00;99951.38;10355073;28;20617;-64
2023/12/09 02:55:19;;;;;;;36.10;26.08;;;;;;;6.21;100.00;99964.75;10333320;28;20685;-62
2023/12/09 03:00:20;;;;;;;34.95;26.88;;;;;;;6.13;100.00;99939.66;10336638;28;20050;-62
2023/12/09 03:05:22;;;;;;;35.20;25.98;;;;;;;6.17;100.00;99935.00;10349274;28;20092;-61
2023/12/09 03:10:23;;;;;;;40.72;28.83;;;;;;;6.22;100.00;99925.00;10335426;28;20065;-61
2023/12/09 03:15:25;;;;;;;38.30;29.00;;;;;;;6.23;100.00;99916.13;10339218;28;20545;-62
2023/12/09 03:20:26;;;;;;;34.85;25.67;;;;;;;6.24;100.00;99909.88;10340768;28;20057;-62
2023/12/09 03:25:28;;;;;;;39.35;27.65;;;;;;;6.35;100.00;99917.06;10344013;28;20750;-62
2023/12/09 03:30:29;;;;;;;42.40;28.60;;;;;;;6.33;100.00;99911.88;10342915;28;20049;-62
2023/12/09 03:35:31;;;;;;;42.33;29.10;;;;;;;6.39;100.00;99921.19;10341571;28;20049;-62
2023/12/09 03:40:32;;;;;;;44.80;30.20;;;;;;;6.37;100.00;99929.22;10349846;28;20053;-62
2023/12/09 03:45:34;;;;;;;41.88;28.88;;;;;;;6.39;100.00;99937.06;10339251;28;20058;-62
2023/12/09 03:50:35;;;;;;;39.85;25.95;;;;;;;6.43;100.00;99937.72;10322982;28;20077;-62
2023/12/09 03:55:37;;;;;;;40.03;26.70;;;;;;;6.42;100.00;99936.84;10328001;28;20048;-62
2023/12/09 04:00:39;;;;;;;40.78;27.70;;;;;;;6.51;100.00;99952.06;10339222;28;20555;-63
2023/12/09 04:05:41;;;;;;;39.20;26.30;;;;;;;6.41;100.00;99932.53;10335420;28;20053;-62
2023/12/09 04:10:43;;;;;;;40.53;28.30;;;;;;;6.54;100.00;99953.66;10338251;28;20056;-62
2023/12/09 04:15:44;;;;;;;40.20;27.77;;;;;;;6.59;100.00;99940.13;10332530;28;20670;-62
2023/12/09 04:20:46;;;;;;;37.78;26.75;;;;;;;6.62;100.00;99943.44;10326923;28;20081;-63
2023/12/09 04:25:48;;;;;;;38.20;26.52;;;;;;;6.61;100.00;99939.09;10334620;28;20053;-62
2023/12/09 04:30:49;;;;;;;37.72;26.88;;;;;;;6.56;100.00;99917.41;10330782;28;20148;-61
2023/12/09 04:35:51;;;;;;;40.85;28.10;;;;;;;6.66;100.00;99914.97;10336402;28;20703;-63
2023/12/09 04:40:53;;;;;;;39.90;26.85;;;;;;;6.53;100.00;99901.72;10334331;28;20049;-61
2023/12/09 04:45:55;;;;;;;36.28;25.95;;;;;;;6.35;100.00;99867.69;10323510;28;20381;-62
2023/12/09 04:50:56;;;;;;;40.00;27.35;;;;;;;6.56;100.00;99912.13;10343020;28;20062;-62
2023/12/09 04:56:00;;;;;;;41.85;25.88;;;;;;;6.60;100.00;99903.00;10329803;28;20266;-63
2023/12/09 05:01:02;;;;;;;36.00;24.30;;;;;;;6.67;100.00;99901.63;10337703;28;20054;-63
2023/12/09 05:06:04;;;;;;;32.80;25.08;;;;;;;6.72;100.00;99888.94;10338685;28;20048;-63
2023/12/09 05:11:06;;;;;;;32.58;21.95;;;;;;;6.69;100.00;99901.50;10348719;28;20045;-62
2023/12/09 05:16:08;;;;;;;35.15;25.40;;;;;;;6.68;100.00;99895.41;10351853;28;20046;-63
2023/12/09 05:21:12;;;;;;;29.08;21.52;;;;;;;6.70;100.00;99885.53;10345084;28;20811;-62
2023/12/09 05:26:23;;;;;;;29.80;21.33;;;;;;;6.68;100.00;99895.41;10345032;28;20128;-62
2023/12/09 05:31:25;;;;;;;30.40;21.50;;;;;;;6.68;100.00;99890.09;10326285;28;20586;-62
2023/12/09 05:36:26;;;;;;;32.85;21.63;;;;;;;6.71;100.00;99879.31;10340891;28;20085;-60
2023/12/09 05:41:27;;;;;;;26.85;21.35;;;;;;;6.70;100.00;99872.31;10355603;28;20704;-62
2023/12/09 05:46:29;;;;;;;27.35;20.27;;;;;;;6.75;100.00;99879.09;10348146;28;20046;-62
2023/12/09 05:51:31;;;;;;;30.70;22.67;;;;;;;6.66;100.00;99862.91;10334977;28;20065;-63
2023/12/09 05:56:32;;;;;;;34.75;24.05;;;;;;;6.61;100.00;99862.38;10342286;28;20664;-62
2023/12/09 06:01:34;;;;;;;42.40;31.52;;;;;;;6.59;100.00;99859.00;10338137;28;20181;-61
2023/12/09 06:06:37;;;;;;;54.13;48.40;;;;;;;6.63;100.00;99855.19;10346559;28;20045;-63
2023/12/09 06:11:39;;;;;;;57.15;42.50;;;;;;;6.58;100.00;99849.38;10342176;28;20144;-62
2023/12/09 06:16:42;;;;;;;50.55;36.35;;;;;;;6.55;100.00;99847.78;10343421;28;20061;-62
2023/12/09 06:21:43;;;;;;;45.35;30.60;;;;;;;6.47;100.00;99828.13;10343649;28;20072;-62
2023/12/09 06:26:45;;;;;;;46.97;30.80;;;;;;;6.46;100.00;99807.94;10342688;28;20049;-63
2023/12/09 06:31:47;;;;;;;42.50;32.70;;;;;;;6.55;100.00;99829.28;10341826;28;20127;-62
2023/12/09 06:36:48;;;;;;;37.28;26.10;;;;;;;6.41;100.00;99799.47;10341113;28;20123;-61
2023/12/09 06:41:49;;;;;;;33.58;25.15;;;;;;;6.69;100.00;99838.88;10339941;28;20080;-62
2023/12/09 06:46:52;;;;;;;50.92;41.65;;;;;;;6.60;100.00;99828.13;10353394;28;20072;-62
2023/12/09 06:51:54;;;;;;;37.90;30.85;;;;;;;6.63;100.00;99831.38;10337958;28;20050;-62
2023/12/09 06:56:56;;;;;;;55.38;49.40;;;;;;;6.65;100.00;99834.78;10339669;28;20060;-63
2023/12/09 07:01:58;;;;;;;44.15;36.25;;;;;;;6.62;100.00;99821.78;10340174;28;20054;-62
2023/12/09 07:07:00;;;;;;;28.70;19.98;;;;;;;6.73;100.00;99835.06;10329485;28;20088;-63
2023/12/09 07:12:03;;;;;;;40.33;31.40;;;;;;;6.73;100.00;99824.47;10339138;28;20192;-63
2023/12/09 07:17:04;;;;;;;63.75;50.08;;;;;;;6.72;100.00;99828.09;10341358;28;20089;-61
2023/12/09 07:22:07;;;;;;;28.95;22.00;;;;;;;6.78;100.00;99841.84;10341347;28;20046;-62
2023/12/09 07:27:08;;;;;;;35.47;26.73;;;;;;;6.84;100.00;99836.09;10352711;28;22497;-63
2023/12/09 07:32:10;;;;;;;39.00;33.00;;;;;;;6.77;100.00;99837.50;10334057;28;20042;-63
2023/12/09 07:37:14;;;;;;;31.10;27.15;;;;;;;6.77;100.00;99833.06;10336840;28;20045;-63
2023/12/09 07:42:16;;;;;;;24.33;19.05;;;;;;;6.75;100.00;99818.25;10334395;28;20049;-63
2023/12/09 07:47:18;;;;;;;23.58;18.17;;;;;;;6.76;100.00;99817.31;10338998;28;20085;-63
2023/12/09 07:52:20;;;;;;;24.52;17.33;;;;;;;6.80;100.00;99809.03;10337344;28;20475;-63
2023/12/09 07:57:22;;;;;;;23.50;17.58;;;;;;;6.87;100.00;99804.13;10337088;28;20696;-62
2023/12/09 08:02:23;;;;;;;21.58;17.42;;;;;;;6.89;100.00;99802.19;10337058;28;20186;-61
2023/12/09 08:07:26;;;;;;;22.27;16.30;;;;;;;6.87;100.00;99801.47;10337867;28;20088;-61
2023/12/09 08:12:28;;;;;;;22.25;16.38;;;;;;;6.90;100.00;99788.91;10349001;28;20056;-61
2023/12/09 08:17:30;;;;;;;21.60;16.70;;;;;;;6.98;100.00;99784.81;10338421;28;20076;-61
2023/12/09 08:22:31;;;;;;;20.35;16.83;;;;;;;6.97;100.00;99784.00;10344012;28;20057;-61
2023/12/09 08:27:33;;;;;;;20.00;15.82;;;;;;;7.03;100.00;99775.59;10333862;28;20144;-63
2023/12/09 08:32:34;;;;;;;18.70;15.00;;;;;;;6.99;100.00;99766.19;10343084;28;20034;-62
2023/12/09 08:37:37;;;;;;;18.75;15.07;;;;;;;7.06;100.00;99769.25;10332534;28;20057;-63
2023/12/09 08:42:43;;;;;;;19.35;14.48;;;;;;;7.04;100.00;99761.41;10332686;28;20423;-62
2023/12/09 08:47:45;;;;;;;19.83;15.05;;;;;;;6.95;100.00;99746.22;10325871;28;20524;-61
2023/12/09 08:52:46;;;;;;;21.30;15.85;;;;;;;7.01;100.00;99756.34;10337551;28;20144;-63
2023/12/09 08:57:48;;;;;;;23.35;15.55;;;;;;;6.93;100.00;99742.00;10332513;28;20045;-62
2023/12/09 09:02:50;;;;;;;17.90;14.02;;;;;;;6.99;100.00;99744.19;10339456;28;20061;-62
2023/12/09 09:07:52;;;;;;;18.77;14.35;;;;;;;7.05;100.00;99733.97;10332684;28;20060;-63
2023/12/09 09:12:55;;;;;;;24.73;14.13;;;;;;;7.10;100.00;99722.22;10334166;28;20132;-61
2023/12/09 09:17:56;;;;;;;21.25;15.52;;;;;;;7.11;100.00;99711.50;10334373;28;20050;-60
2023/12/09 09:22:57;;;;;;;19.65;14.25;;;;;;;7.16;100.00;99692.63;10334416;28;20064;-61
2023/12/09 09:27:59;;;;;;;19.77;14.38;;;;;;;7.17;100.00;99700.44;10334141;28;20570;-62
2023/12/09 09:33:01;;;;;;;21.90;15.18;;;;;;;7.24;100.00;99700.84;10342275;28;20184;-62
2023/12/09 09:38:03;;;;;;;20.45;14.40;;;;;;;7.28;100.00;99702.31;10339604;28;20250;-61
2023/12/09 09:43:08;;;;;;;16.08;12.35;;;;;;;7.36;100.00;99684.03;10312092;28;20058;-62
2023/12/09 09:48:12;;;;;;;18.17;13.07;;;;;;;7.42;100.00;99704.75;10332355;28;20080;-61
2023/12/09 09:53:20;;;;;;;17.55;13.13;;;;;;;7.46;100.00;99704.50;10348202;28;20057;-61
2023/12/09 09:58:22;;;;;;;17.42;12.20;;;;;;;7.50;100.00;99705.97;10339260;28;20111;-61
2023/12/09 10:03:24;;;;;;;16.63;12.40;;;;;;;7.60;100.00;99701.66;10344785;28;20103;-61
2023/12/09 10:08:26;;;;;;;15.82;12.85;;;;;;;7.63;100.00;99695.25;10346805;28;20054;-61
2023/12/09 10:13:27;;;;;;;17.23;12.88;;;;;;;7.66;100.00;99680.00;10346108;28;20526;-62
2023/12/09 10:18:30;;;;;;;18.08;13.73;;;;;;;7.65;100.00;99657.09;10347912;28;20149;-63
2023/12/09 10:23:34;;;;;;;17.83;11.85;;;;;;;7.70;100.00;99654.09;10358429;28;20075;-62
2023/12/09 10:28:37;;;;;;;21.48;13.23;;;;;;;7.70;100.00;99635.53;10345009;28;20046;-60
2023/12/09 10:33:39;;;;;;;16.48;13.07;;;;;;;7.75;100.00;99610.38;10340592;28;20046;-62
2023/12/09 10:38:42;;;;;;;16.67;11.73;;;;;;;7.84;100.00;99597.38;10342062;28;20046;-61
2023/12/09 10:43:45;;;;;;;16.58;11.60;;;;;;;7.65;100.00;99552.97;10340567;28;20054;-62
2023/12/09 10:48:46;;;;;;;19.95;11.32;;;;;;;7.96;100.00;99561.94;10351307;28;20045;-63
2023/12/09 10:53:47;;;;;;;17.95;11.63;;;;;;;8.09;100.00;99546.75;10344912;28;20049;-62
2023/12/09 10:58:50;;;;;;;15.50;11.45;;;;;;;8.33;100.00;99535.06;10340558;28;20118;-62
2023/12/09 11:03:52;;;;;;;17.30;10.20;;;;;;;8.56;100.00;99497.88;10320197;28;20107;-63
2023/12/09 11:08:54;;;;;;;14.85;13.02;;;;;;;8.60;100.00;99491.34;10338438;28;20049;-63
2023/12/09 11:13:58;;;;;;;16.02;10.90;;;;;;;8.65;100.00;99478.53;10343069;28;20056;-63
2023/12/09 11:19:01;;;;;;;10.23;6.88;;;;;;;8.61;100.00;99456.72;10337608;28;20053;-63
2023/12/09 11:24:03;;;;;;;12.90;7.88;;;;;;;8.77;100.00;99458.09;10340756;28;20068;-62
2023/12/09 11:29:09;;;;;;;10.15;7.20;;;;;;;8.76;100.00;99441.28;10335885;28;20668;-61
2023/12/09 11:34:14;;;;;;;14.02;7.75;;;;;;;8.79;100.00;99430.41;10345873;28;20867;-63
2023/12/09 11:39:20;;;;;;;9.80;8.27;;;;;;;8.77;100.00;99416.44;10339230;28;20050;-64
2023/12/09 11:44:24;;;;;;;6.88;4.28;;;;;;;9.02;100.00;99409.00;10335203;28;20053;-63
2023/12/09 11:49:26;;;;;;;10.85;3.97;;;;;;;9.05;100.00;99399.94;10335749;28;20205;-63
2023/12/09 11:54:28;;;;;;;10.35;4.95;;;;;;;9.11;99.81;99392.28;10339447;28;20046;-64
2023/12/09 11:59:29;;;;;;;7.07;3.30;;;;;;;9.15;99.74;99375.09;10337710;28;20060;-62
2023/12/09 12:04:33;;;;;;;7.18;3.83;;;;;;;9.19;99.23;99373.03;10336663;28;20132;-64
2023/12/09 12:09:39;;;;;;;5.25;4.00;;;;;;;9.55;98.29;99352.94;10334235;28;20054;-63
2023/12/09 12:14:42;;;;;;;7.72;4.55;;;;;;;9.42;95.96;99347.03;10343339;28;20053;-63
2023/12/09 12:19:44;;;;;;;8.32;3.70;;;;;;;9.35;95.94;99329.97;10345094;28;20529;-62
2023/12/09 12:24:46;;;;;;;5.10;3.60;;;;;;;9.34;94.45;99317.69;10326479;28;20058;-63
2023/12/09 12:29:47;;;;;;;10.15;3.88;;;;;;;9.13;94.50;99294.75;10338030;28;20207;-63
2023/12/09 12:34:50;;;;;;;7.28;3.78;;;;;;;9.11;95.78;99277.25;10336595;28;20058;-62
2023/12/09 12:39:53;;;;;;;7.88;4.75;;;;;;;9.03;95.88;99270.00;10327604;28;20046;-63
2023/12/09 12:44:55;;;;;;;6.13;3.05;;;;;;;8.91;95.80;99266.63;10335219;28;20050;-60
2023/12/09 12:49:56;;;;;;;6.50;3.92;;;;;;;8.88;95.58;99263.41;10328712;28;20589;-61
2023/12/09 12:55:01;;;;;;;4.73;3.53;;;;;;;8.90;95.50;99237.56;10350730;28;20049;-62
2023/12/09 13:00:03;;;;;;;21.95;15.57;;;;;;;8.93;94.87;99208.09;10334159;28;20073;-63
2023/12/09 13:05:13;;;;;;;8.10;5.22;;;;;;;8.90;95.39;99201.25;10332165;28;20080;-62
2023/12/09 13:10:14;;;;;;;18.52;14.45;;;;;;;8.98;95.85;99192.59;10338874;28;20677;-63
2023/12/09 13:15:16;;;;;;;5.80;4.28;;;;;;;8.96;94.84;99175.97;10338698;28;20760;-63
2023/12/09 13:20:18;;;;;;;5.07;2.92;;;;;;;8.87;94.72;99156.41;10349232;28;20133;-62
2023/12/09 13:25:19;;;;;;;9.65;6.72;;;;;;;8.82;95.76;99163.94;10319985;28;20065;-63
2023/12/09 13:30:21;;;;;;;9.07;5.85;;;;;;;8.83;96.11;99150.53;10349823;28;20773;-62
2023/12/09 13:35:23;;;;;;;8.55;5.53;;;;;;;8.70;95.74;99093.44;10345530;28;20419;-62
2023/12/09 13:40:25;;;;;;;9.68;7.03;;;;;;;8.78;95.69;99086.47;10346754;28;20065;-63
2023/12/09 13:45:26;;;;;;;6.13;4.80;;;;;;;8.71;96.27;99065.91;10335643;28;20050;-66
2023/12/09 13:50:28;;;;;;;9.25;6.20;;;;;;;8.74;96.00;99066.47;10350124;28;20046;-62
2023/12/09 13:55:30;;;;;;;3.78;2.53;;;;;;;8.66;96.06;99053.06;10353173;28;20049;-61
2023/12/09 14:00:31;;;;;;;6.75;5.40;;;;;;;8.71;96.31;99021.66;10320642;28;20385;-62
2023/12/09 14:05:33;;;;;;;5.60;2.78;;;;;;;8.73;96.26;99010.91;10339770;28;20083;-60
2023/12/09 14:10:36;;;;;;;3.78;2.15;;;;;;;8.76;96.28;99000.84;10333275;28;20104;-64
2023/12/09 14:15:37;;;;;;;6.55;5.82;;;;;;;8.72;95.29;98970.28;10340081;28;20060;-63
2023/12/09 14:20:39;;;;;;;6.88;3.78;;;;;;;8.73;94.34;98973.75;10325736;28;20123;-64
2023/12/09 14:25:44;;;;;;;8.07;4.72;;;;;;;8.69;95.12;98944.00;10336088;28;20049;-64
2023/12/09 14:30:45;;;;;;;14.65;13.10;;;;;;;8.89;96.85;98936.00;10340729;28;20246;-67
2023/12/09 14:35:48;;;;;;;9.90;6.50;;;;;;;8.93;96.75;98938.25;10335554;28;20053;-72
2023/12/09 14:40:50;;;;;;;4.03;1.90;;;;;;;8.87;96.02;98933.47;10331538;28;20054;-64
2023/12/09 14:45:52;;;;;;;3.70;1.90;;;;;;;8.73;96.88;98926.84;10354210;28;20500;-65
2023/12/09 14:50:56;;;;;;;4.30;2.60;;;;;;;8.63;97.77;98902.16;10342479;28;20054;-64
2023/12/09 14:55:57;;;;;;;3.92;2.00;;;;;;;8.58;98.54;98907.06;10327500;28;20144;-64
2023/12/09 15:00:59;;;;;;;3.63;1.98;;;;;;;8.47;98.56;98898.28;10347961;28;20061;-65
2023/12/09 15:06:01;;;;;;;2.42;1.13;;;;;;;8.37;100.00;98884.19;10341333;28;20060;-66
2023/12/09 15:11:03;;;;;;;3.08;1.80;;;;;;;8.31;100.00;98868.84;10346398;28;20233;-64
2023/12/09 15:16:07;;;;;;;5.00;2.35;;;;;;;8.19;100.00;98843.47;10341370;28;20053;-66
2023/12/09 15:21:08;;;;;;;11.38;7.85;;;;;;;8.26;100.00;98833.97;10339152;28;20167;-65
2023/12/09 15:26:10;;;;;;;6.78;5.63;;;;;;;8.06;100.00;98812.81;10347964;28;20042;-65
2023/12/09 15:31:12;;;;;;;11.25;8.40;;;;;;;7.91;100.00;98788.59;10339350;28;20057;-66
2023/12/09 15:36:14;;;;;;;3.72;2.67;;;;;;;8.08;100.00;98784.34;10344798;28;20077;-66
2023/12/09 15:41:15;;;;;;;4.85;3.22;;;;;;;8.00;100.00;98752.44;10332618;28;20049;-66
2023/12/09 15:46:16;;;;;;;5.40;3.40;;;;;;;8.09;100.00;98759.53;10338377;28;20105;-64
2023/12/09 15:51:18;;;;;;;10.40;8.13;;;;;;;8.16;100.00;98732.44;10339482;28;20050;-64
2023/12/09 15:56:20;;;;;;;26.73;20.02;;;;;;;8.20;100.00;98723.22;10326907;28;20817;-65
2023/12/09 16:01:25;;;;;;;10.18;5.50;;;;;;;8.16;100.00;98700.63;10342300;28;20112;-65
2023/12/09 16:06:28;;;;;;;6.60;3.38;;;;;;;8.07;100.00;98652.81;10336781;28;20516;-65
2023/12/09 16:11:29;;;;;;;16.90;10.57;;;;;;;8.11;100.00;98640.94;10341893;28;20100;-65
2023/12/09 16:16:32;;;;;;;23.15;15.13;;;;;;;7.96;100.00;98653.03;10341085;28;20045;-65
2023/12/09 16:21:34;;;;;;;31.00;18.42;;;;;;;7.83;100.00;98626.03;10336269;28;20103;-67
2023/12/09 16:26:36;;;;;;;24.33;13.77;;;;;;;7.87;100.00;98619.47;10333163;28;20107;-66
2023/12/09 16:31:38;;;;;;;28.38;19.77;;;;;;;7.91;100.00;98596.97;10333405;28;20060;-66
2023/12/09 16:36:41;;;;;;;7.85;4.30;;;;;;;7.79;100.00;98573.34;10344799;28;20053;-66
2023/12/09 16:41:44;;;;;;;11.68;10.55;;;;;;;7.86;100.00;98570.09;10333834;28;20069;-66
2023/12/09 16:46:49;;;;;;;15.85;14.25;;;;;;;7.86;100.00;98554.19;10332124;28;20048;-65
2023/12/09 16:51:53;;;;;;;5.78;3.78;;;;;;;7.82;100.00;98555.47;10345040;28;20069;-68
2023/12/09 16:56:56;;;;;;;4.60;2.93;;;;;;;7.74;100.00;98535.03;10338251;28;20096;-65
2023/12/09 17:01:58;;;;;;;4.00;3.35;;;;;;;7.78;100.00;98529.28;10345754;28;20057;-65
2023/12/09 17:07:01;;;;;;;2.78;0.90;;;;;;;7.77;100.00;98509.06;10314662;28;20068;-66
2023/12/09 17:12:02;;;;;;;5.57;4.97;;;;;;;7.81;100.00;98490.22;10344321;28;20228;-66
2023/12/09 17:17:04;;;;;;;3.85;2.65;;;;;;;7.82;100.00;98476.00;10350661;28;20045;-65
2023/12/09 17:22:05;;;;;;;15.45;13.88;;;;;;;7.90;100.00;98460.22;10347992;28;20046;-65
2023/12/09 17:27:07;;;;;;;6.93;5.18;;;;;;;7.75;100.00;98444.81;10342165;28;20077;-65
2023/12/09 17:32:09;;;;;;;6.47;5.78;;;;;;;7.83;100.00;98443.25;10342430;28;20133;-65
2023/12/09 17:37:10;;;;;;;6.25;4.28;;;;;;;7.79;100.00;98430.28;10340341;28;20050;-65
2023/12/09 17:42:12;;;;;;;6.18;4.90;;;;;;;7.77;100.00;98429.59;10344936;28;20081;-65
2023/12/09 17:47:15;;;;;;;15.82;10.98;;;;;;;7.87;100.00;98423.41;10341809;28;20503;-65
2023/12/09 17:52:18;;;;;;;8.82;5.88;;;;;;;7.84;100.00;98423.72;10324331;28;20485;-65
2023/12/09 17:57:20;;;;;;;6.18;3.75;;;;;;;7.75;100.00;98401.63;10340224;28;20049;-65
2023/12/09 18:02:23;;;;;;;5.43;3.83;;;;;;;7.76;100.00;98413.84;10340265;28;20059;-65
2023/12/09 18:07:25;;;;;;;5.72;3.53;;;;;;;7.72;100.00;98381.56;10347665;28;20061;-65
2023/12/09 18:12:27;;;;;;;4.43;3.85;;;;;;;7.78;100.00;98380.94;10340256;28;20058;-65
2023/12/09 18:17:29;;;;;;;7.88;5.57;;;;;;;7.82;100.00;98370.03;10336321;28;20333;-63
2023/12/09 18:22:31;;;;;;;7.10;4.82;;;;;;;7.74;100.00;98347.78;10338774;28;20128;-64
2023/12/09 18:27:34;;;;;;;5.35;3.20;;;;;;;7.81;100.00;98341.88;10345194;28;20105;-65
2023/12/09 18:32:38;;;;;;;4.55;2.80;;;;;;;7.73;100.00;98324.97;10356397;28;20057;-64
2023/12/09 18:37:40;;;;;;;4.70;3.30;;;;;;;7.67;100.00;98314.97;10346760;28;20100;-65
2023/12/09 18:42:42;;;;;;;4.32;2.85;;;;;;;7.67;100.00;98288.50;10330587;28;20058;-65
2023/12/09 18:47:44;;;;;;;5.18;3.92;;;;;;;7.66;100.00;98281.53;10342225;28;20065;-65
2023/12/09 18:52:45;;;;;;;8.27;7.47;;;;;;;7.78;100.00;98261.75;10340972;28;20131;-66
2023/12/09 18:57:47;;;;;;;2.75;2.00;;;;;;;7.69;100.00;98267.16;10331874;28;20060;-65
2023/12/09 19:02:49;;;;;;;8.48;7.35;;;;;;;7.71;100.00;98289.84;10348645;28;20065;-66
2023/12/09 19:07:51;;;;;;;10.85;9.75;;;;;;;7.82;100.00;98298.53;10341784;28;20251;-69
2023/12/09 19:12:58;;;;;;;3.63;3.23;;;;;;;7.97;100.00;98295.19;10347947;28;20054;-66
2023/12/09 19:18:00;;;;;;;6.43;4.90;;;;;;;8.02;100.00;98285.94;10337168;28;20296;-65
2023/12/09 19:23:02;;;;;;;6.82;4.82;;;;;;;8.11;100.00;98296.41;10338145;28;20050;-67
2023/12/09 19:28:03;;;;;;;3.83;3.45;;;;;;;8.12;100.00;98282.19;10342006;28;20137;-64
2023/12/09 19:33:05;;;;;;;5.03;4.13;;;;;;;8.02;100.00;98273.50;10328784;28;20068;-66
2023/12/09 19:38:07;;;;;;;9.98;9.05;;;;;;;7.92;100.00;98251.59;10350613;28;20061;-65
2023/12/09 19:43:08;;;;;;;2.92;2.25;;;;;;;7.83;100.00;98255.16;10352162;28;21107;-66
2023/12/09 19:48:10;;;;;;;3.30;2.55;;;;;;;7.81;100.00;98267.72;10330487;28;20061;-67
2023/12/09 19:53:12;;;;;;;13.27;12.02;;;;;;;7.82;100.00;98259.66;10340722;28;20466;-64
2023/12/09 19:58:15;;;;;;;3.13;2.50;;;;;;;7.82;100.00;98262.28;10352558;28;20476;-67
2023/12/09 20:03:20;;;;;;;3.90;2.28;;;;;;;7.86;100.00;98254.84;10340910;28;20051;-66
2023/12/09 20:08:22;;;;;;;17.80;15.90;;;;;;;7.71;100.00;98247.47;10343665;28;20057;-64
2023/12/09 20:13:25;;;;;;;4.38;3.58;;;;;;;7.76;100.00;98261.09;10340842;28;20744;-63
2023/12/09 20:18:26;;;;;;;15.43;12.90;;;;;;;7.83;100.00;98271.88;10339783;28;20078;-62
2023/12/09 20:23:29;;;;;;;12.02;10.40;;;;;;;7.64;100.00;98225.25;10337311;28;20042;-61
2023/12/09 20:28:30;;;;;;;4.57;4.18;;;;;;;7.84;100.00;98285.97;10345231;28;20058;-64
2023/12/09 20:33:34;;;;;;;5.03;4.28;;;;;;;7.85;100.00;98284.97;10335160;28;20908;-63
2023/12/09 20:38:36;;;;;;;5.72;4.53;;;;;;;7.88;100.00;98289.97;10353272;28;20494;-63
2023/12/09 20:43:37;;;;;;;6.68;6.00;;;;;;;7.81;100.00;98308.31;10336708;28;20148;-64
2023/12/09 20:48:39;;;;;;;6.07;5.47;;;;;;;7.90;100.00;98307.38;10338244;28;20219;-63
2023/12/09 20:53:40;;;;;;;5.95;5.38;;;;;;;7.89;100.00;98326.06;10343162;28;20057;-61
2023/12/09 20:58:42;;;;;;;6.63;6.03;;;;;;;7.83;100.00;98324.03;10335780;28;20057;-62
2023/12/09 21:03:44;;;;;;;6.80;6.10;;;;;;;7.93;100.00;98327.44;10334360;28;20609;-62
2023/12/09 21:08:46;;;;;;;8.07;7.25;;;;;;;7.94;100.00;98342.31;10331172;28;20054;-62
2023/12/09 21:13:49;;;;;;;7.13;6.43;;;;;;;8.01;100.00;98361.09;10353907;28;20053;-62
2023/12/09 21:18:50;;;;;;;7.10;6.43;;;;;;;7.83;100.00;98346.06;10338523;28;20061;-63
2023/12/09 21:23:52;;;;;;;6.93;6.22;;;;;;;7.84;100.00;98357.50;10348808;28;20049;-63
2023/12/09 21:28:54;;;;;;;6.80;5.85;;;;;;;7.87;100.00;98373.91;10338508;28;20140;-62
2023/12/09 21:33:55;;;;;;;7.57;6.78;;;;;;;7.92;100.00;98389.34;10351279;28;20054;-62
2023/12/09 21:38:57;;;;;;;6.20;5.70;;;;;;;8.00;100.00;98405.31;10357438;28;20060;-62
2023/12/09 21:43:59;;;;;;;6.75;6.15;;;;;;;7.92;100.00;98399.94;10312988;28;20062;-62
2023/12/09 21:49:00;;;;;;;5.85;5.22;;;;;;;7.99;100.00;98422.19;10341321;28;20173;-61
2023/12/09 21:54:02;;;;;;;5.57;4.68;;;;;;;8.03;100.00;98430.66;10348295;28;20050;-61
2023/12/09 21:59:04;;;;;;;5.43;4.15;;;;;;;7.99;100.00;98424.84;10342012;28;21784;-61
2023/12/09 22:04:05;;;;;;;4.35;3.65;;;;;;;7.99;100.00;98427.50;10342397;28;20053;-63
2023/12/09 22:09:07;;;;;;;4.45;3.20;;;;;;;8.07;100.00;98416.97;10352994;28;20054;-63
2023/12/09 22:14:09;;;;;;;3.97;3.17;;;;;;;8.02;100.00;98408.66;10356185;28;20395;-62
2023/12/09 22:19:10;;;;;;;3.20;2.90;;;;;;;8.12;100.00;98440.34;10346751;28;20925;-63
2023/12/09 22:24:12;;;;;;;2.95;2.65;;;;;;;8.07;100.00;98437.34;10340605;28;20061;-63
2023/12/09 22:29:13;;;;;;;2.80;2.50;;;;;;;8.20;100.00;98471.41;10340358;28;20169;-62
2023/12/09 22:34:14;;;;;;;2.70;2.20;;;;;;;8.26;100.00;98474.28;10342886;28;20137;-64
2023/12/09 22:39:16;;;;;;;2.42;2.22;;;;;;;8.29;100.00;98489.88;10341471;28;20053;-63
2023/12/09 22:44:18;;;;;;;2.72;1.80;;;;;;;8.34;100.00;98500.03;10272700;28;20459;-62
2023/12/09 22:49:20;;;;;;;3.58;2.30;;;;;;;8.40;100.00;98506.53;10294222;28;20054;-62
2023/12/09 22:54:21;;;;;;;2.53;1.70;;;;;;;8.41;100.00;98519.66;10297126;28;20050;-65
2023/12/09 22:59:25;;;;;;;3.42;1.98;;;;;;;8.49;100.00;98533.00;10284697;28;20050;-61
2023/12/09 23:04:26;;;;;;;3.03;1.77;;;;;;;8.45;100.00;98541.41;10325152;28;20143;-62
2023/12/09 23:09:27;;;;;;;4.15;2.00;;;;;;;8.39;100.00;98561.41;10314407;28;20081;-62